WZZ1935 EPKT-LEBL
Flight info
| Callsign | WZZ1935 |
|---|---|
| Flight time | N/A |
| Altitude | 36000 |
| Route | TUSIN DCT NAVTI DCT LIMRA DCT DETSA/N0449F350 DCT BOTAL DCT GEKBA DCT VAMTU DCT KOLON DCT GANGU DCT PADKO DCT DIVKO DCT NILDU DCT BISBA |
| Aircraft | A320/M-SDE3FGHIRWY/LB1 |
Departure
| Time | 2026-05-08 08:52 |
|---|---|
| Airport | Katowice Wojciech Korfanty International Airport (EPKT) |
Arrival
| Time | N/A |
|---|---|
| Airport | Josep Tarradellas Barcelona-El Prat Airport (LEBL) |
| Time | Latitude | Longitude | Altitude | Speed | Heading |
|---|---|---|---|---|---|
| 2026-05-08 08:07 | 50.47154 | 19.07966 | 998 ft | 0 kts | 180° |
| 2026-05-08 08:40 | 50.47164 | 19.07966 | 998 ft | 4 kts | 180° |
| 2026-05-08 08:40 | 50.47190 | 19.07966 | 998 ft | 4 kts | 175° |
| 2026-05-08 08:41 | 50.47216 | 19.07958 | 998 ft | 4 kts | 150° |
| 2026-05-08 08:41 | 50.47233 | 19.07932 | 998 ft | 4 kts | 98° |
| 2026-05-08 08:41 | 50.47233 | 19.07916 | 998 ft | 1 kts | 90° |
| 2026-05-08 08:46 | 50.47233 | 19.07925 | 1002 ft | 4 kts | 90° |
| 2026-05-08 08:47 | 50.47233 | 19.08031 | 998 ft | 12 kts | 90° |
| 2026-05-08 08:47 | 50.47233 | 19.08174 | 1003 ft | 14 kts | 90° |
| 2026-05-08 08:47 | 50.47232 | 19.08341 | 998 ft | 16 kts | 90° |
| 2026-05-08 08:47 | 50.47231 | 19.08525 | 998 ft | 18 kts | 90° |
| 2026-05-08 08:48 | 50.47231 | 19.08729 | 1001 ft | 20 kts | 90° |
| 2026-05-08 08:48 | 50.47231 | 19.08955 | 1001 ft | 21 kts | 90° |
| 2026-05-08 08:48 | 50.47232 | 19.09194 | 1002 ft | 23 kts | 90° |
| 2026-05-08 08:48 | 50.47232 | 19.09451 | 998 ft | 24 kts | 91° |
| 2026-05-08 08:49 | 50.47228 | 19.09721 | 1000 ft | 24 kts | 89° |
| 2026-05-08 08:49 | 50.47228 | 19.09947 | 1003 ft | 18 kts | 90° |
| 2026-05-08 08:49 | 50.47284 | 19.10121 | 998 ft | 19 kts | 52° |
| 2026-05-08 08:49 | 50.47356 | 19.10266 | 1000 ft | 11 kts | 52° |
| 2026-05-08 08:50 | 50.47409 | 19.10372 | 1001 ft | 13 kts | 52° |
| 2026-05-08 08:50 | 50.47471 | 19.10447 | 999 ft | 7 kts | 8° |
| 2026-05-08 08:50 | 50.47526 | 19.10450 | 1001 ft | 9 kts | 0° |
| 2026-05-08 08:50 | 50.47570 | 19.10448 | 998 ft | 11 kts | 357° |
| 2026-05-08 08:51 | 50.47596 | 19.10374 | 1001 ft | 0 kts | 270° |
| 2026-05-08 08:51 | 50.47595 | 19.10339 | 1000 ft | 19 kts | 269° |
| 2026-05-08 08:51 | 50.47595 | 19.09743 | 1003 ft | 86 kts | 270° |
| 2026-05-08 08:51 | 50.47598 | 19.08494 | 997 ft | 137 kts | 270° |
| 2026-05-08 08:52 | 50.47604 | 19.06587 | 1097 ft | 172 kts | 271° |
| 2026-05-08 08:52 | 50.47605 | 19.04899 | 1765 ft | 165 kts | 271° |
| 2026-05-08 08:52 | 50.47601 | 19.03104 | 2409 ft | 165 kts | 271° |
| 2026-05-08 08:52 | 50.47601 | 19.01258 | 2895 ft | 175 kts | 271° |
| 2026-05-08 08:53 | 50.47608 | 18.99233 | 3147 ft | 194 kts | 272° |
| 2026-05-08 08:53 | 50.47620 | 18.97008 | 3404 ft | 214 kts | 272° |
| 2026-05-08 08:53 | 50.47627 | 18.94539 | 3658 ft | 238 kts | 271° |
| 2026-05-08 08:53 | 50.47617 | 18.91817 | 4073 ft | 259 kts | 270° |
| 2026-05-08 08:54 | 50.47581 | 18.88953 | 4791 ft | 266 kts | 270° |
| 2026-05-08 08:54 | 50.47539 | 18.86033 | 5602 ft | 269 kts | 269° |
| 2026-05-08 08:54 | 50.47496 | 18.83091 | 6449 ft | 271 kts | 269° |
| 2026-05-08 08:54 | 50.47453 | 18.80118 | 7249 ft | 273 kts | 269° |
| 2026-05-08 08:55 | 50.47410 | 18.77118 | 8025 ft | 276 kts | 269° |
| 2026-05-08 08:55 | 50.47367 | 18.74088 | 8772 ft | 279 kts | 269° |
| 2026-05-08 08:55 | 50.47318 | 18.71030 | 9541 ft | 281 kts | 268° |
| 2026-05-08 08:55 | 50.47268 | 18.67910 | 10276 ft | 284 kts | 268° |
| 2026-05-08 08:56 | 50.47215 | 18.64705 | 10540 ft | 305 kts | 266° |
| 2026-05-08 08:56 | 50.46813 | 18.61325 | 10688 ft | 326 kts | 251° |
| 2026-05-08 08:56 | 50.45805 | 18.58098 | 11150 ft | 334 kts | 236° |
| 2026-05-08 08:56 | 50.44266 | 18.55348 | 11761 ft | 338 kts | 221° |
| 2026-05-08 08:57 | 50.42296 | 18.53312 | 12394 ft | 341 kts | 207° |
| 2026-05-08 08:57 | 50.40148 | 18.51699 | 13013 ft | 343 kts | 206° |
| 2026-05-08 08:57 | 50.37987 | 18.50091 | 13642 ft | 345 kts | 206° |
| 2026-05-08 08:57 | 50.35806 | 18.48475 | 14245 ft | 347 kts | 206° |
| 2026-05-08 08:58 | 50.33613 | 18.46854 | 14830 ft | 350 kts | 206° |
| 2026-05-08 08:58 | 50.31370 | 18.45337 | 15374 ft | 353 kts | 200° |
| 2026-05-08 08:58 | 50.28955 | 18.44494 | 15905 ft | 358 kts | 188° |
| 2026-05-08 08:58 | 50.26449 | 18.44471 | 16422 ft | 364 kts | 176° |
| 2026-05-08 08:59 | 50.23941 | 18.45165 | 16927 ft | 368 kts | 171° |
| 2026-05-08 08:59 | 50.21424 | 18.45959 | 17440 ft | 370 kts | 171° |
| 2026-05-08 08:59 | 50.18893 | 18.46758 | 17939 ft | 373 kts | 171° |
| 2026-05-08 08:59 | 50.16340 | 18.47556 | 18436 ft | 375 kts | 171° |
| 2026-05-08 09:00 | 50.13769 | 18.48352 | 18930 ft | 378 kts | 171° |
| 2026-05-08 09:00 | 50.11182 | 18.49149 | 19420 ft | 381 kts | 172° |
| 2026-05-08 09:00 | 50.08575 | 18.49952 | 19907 ft | 383 kts | 172° |
| 2026-05-08 09:00 | 50.05951 | 18.50760 | 20373 ft | 386 kts | 172° |
| 2026-05-08 09:01 | 50.03306 | 18.51575 | 20837 ft | 388 kts | 171° |
| 2026-05-08 09:01 | 50.00650 | 18.52396 | 21280 ft | 391 kts | 172° |
| 2026-05-08 09:01 | 49.97975 | 18.53220 | 21702 ft | 393 kts | 172° |
| 2026-05-08 09:01 | 49.95284 | 18.54047 | 22074 ft | 396 kts | 172° |
| 2026-05-08 09:02 | 49.92535 | 18.54889 | 22450 ft | 399 kts | 173° |
| 2026-05-08 09:02 | 49.89780 | 18.55253 | 22822 ft | 397 kts | 185° |
| 2026-05-08 09:02 | 49.87062 | 18.54636 | 23191 ft | 395 kts | 198° |
| 2026-05-08 09:02 | 49.84523 | 18.53056 | 23555 ft | 393 kts | 211° |
| 2026-05-08 09:03 | 49.82297 | 18.50625 | 23920 ft | 392 kts | 224° |
| 2026-05-08 09:03 | 49.80480 | 18.47485 | 24281 ft | 392 kts | 236° |
| 2026-05-08 09:03 | 49.78949 | 18.43983 | 24633 ft | 394 kts | 237° |
| 2026-05-08 09:03 | 49.77414 | 18.40463 | 24988 ft | 396 kts | 237° |
| 2026-05-08 09:04 | 49.75863 | 18.36926 | 25344 ft | 398 kts | 236° |
| 2026-05-08 09:04 | 49.74305 | 18.33383 | 25681 ft | 399 kts | 236° |
| 2026-05-08 09:04 | 49.72741 | 18.29829 | 26029 ft | 401 kts | 236° |
| 2026-05-08 09:04 | 49.71166 | 18.26252 | 26365 ft | 403 kts | 236° |
| 2026-05-08 09:05 | 49.69585 | 18.22666 | 26677 ft | 405 kts | 236° |
| 2026-05-08 09:05 | 49.67975 | 18.19025 | 27021 ft | 406 kts | 236° |
| 2026-05-08 09:05 | 49.66377 | 18.15419 | 27338 ft | 408 kts | 236° |
| 2026-05-08 09:05 | 49.64776 | 18.11805 | 27652 ft | 410 kts | 236° |
| 2026-05-08 09:06 | 49.63158 | 18.08149 | 27964 ft | 412 kts | 236° |
| 2026-05-08 09:06 | 49.61542 | 18.04508 | 28368 ft | 411 kts | 238° |
| 2026-05-08 09:06 | 49.59930 | 18.00883 | 28782 ft | 409 kts | 238° |
| 2026-05-08 09:06 | 49.58322 | 17.97271 | 29194 ft | 408 kts | 238° |
| 2026-05-08 09:07 | 49.56721 | 17.93666 | 29610 ft | 407 kts | 238° |
| 2026-05-08 09:07 | 49.55127 | 17.90078 | 30052 ft | 405 kts | 238° |
| 2026-05-08 09:07 | 49.53537 | 17.86513 | 30456 ft | 403 kts | 238° |
| 2026-05-08 09:07 | 49.51946 | 17.82959 | 30839 ft | 403 kts | 238° |
| 2026-05-08 09:08 | 49.50358 | 17.79418 | 31216 ft | 402 kts | 238° |
| 2026-05-08 09:08 | 49.48771 | 17.75883 | 31611 ft | 401 kts | 238° |
| 2026-05-08 09:08 | 49.47186 | 17.72356 | 32006 ft | 400 kts | 238° |
| 2026-05-08 09:08 | 49.45603 | 17.68840 | 32389 ft | 399 kts | 238° |
| 2026-05-08 09:09 | 49.44024 | 17.65336 | 32767 ft | 398 kts | 238° |
| 2026-05-08 09:09 | 49.42448 | 17.61842 | 33134 ft | 398 kts | 238° |
| 2026-05-08 09:09 | 49.40872 | 17.58352 | 33505 ft | 396 kts | 237° |
| 2026-05-08 09:09 | 49.39303 | 17.54883 | 33860 ft | 396 kts | 238° |
| 2026-05-08 09:10 | 49.37733 | 17.51417 | 34203 ft | 395 kts | 237° |
| 2026-05-08 09:10 | 49.36169 | 17.47963 | 34503 ft | 394 kts | 237° |
| 2026-05-08 09:10 | 49.34599 | 17.44502 | 34755 ft | 395 kts | 237° |
| 2026-05-08 09:10 | 49.33026 | 17.41039 | 35015 ft | 396 kts | 237° |
| 2026-05-08 09:11 | 49.31452 | 17.37575 | 35275 ft | 396 kts | 237° |
| 2026-05-08 09:11 | 49.29855 | 17.34071 | 35528 ft | 396 kts | 237° |
| 2026-05-08 09:11 | 49.28273 | 17.30608 | 35759 ft | 397 kts | 237° |
| 2026-05-08 09:11 | 49.26688 | 17.27144 | 36005 ft | 397 kts | 237° |
| 2026-05-08 09:12 | 49.23488 | 17.20156 | 36118 ft | 406 kts | 237° |
| 2026-05-08 09:12 | 49.20208 | 17.13003 | 36110 ft | 414 kts | 237° |
| 2026-05-08 09:13 | 49.16893 | 17.05797 | 36114 ft | 415 kts | 237° |
| 2026-05-08 09:13 | 49.13563 | 16.98587 | 36106 ft | 415 kts | 237° |
| 2026-05-08 09:14 | 49.10239 | 16.91403 | 36107 ft | 414 kts | 237° |
| 2026-05-08 09:14 | 49.06913 | 16.84226 | 36114 ft | 414 kts | 237° |
| 2026-05-08 09:15 | 49.03561 | 16.77013 | 36115 ft | 414 kts | 237° |
| 2026-05-08 09:15 | 49.00224 | 16.69853 | 36114 ft | 414 kts | 237° |
| 2026-05-08 09:16 | 48.97444 | 16.63918 | 36125 ft | 414 kts | 237° |
| 2026-05-08 09:16 | 48.94099 | 16.56777 | 36121 ft | 414 kts | 237° |
| 2026-05-08 09:17 | 48.90759 | 16.49665 | 36124 ft | 414 kts | 236° |
| 2026-05-08 09:17 | 48.87403 | 16.42553 | 36128 ft | 413 kts | 236° |
| 2026-05-08 09:18 | 48.84065 | 16.35498 | 36705 ft | 406 kts | 236° |
| 2026-05-08 09:18 | 48.82420 | 16.32023 | 37012 ft | 405 kts | 236° |
| 2026-05-08 09:18 | 48.80782 | 16.28563 | 37297 ft | 403 kts | 236° |
| 2026-05-08 09:19 | 48.79152 | 16.25120 | 37584 ft | 400 kts | 236° |
| 2026-05-08 09:19 | 48.77530 | 16.21698 | 37855 ft | 399 kts | 236° |
| 2026-05-08 09:19 | 48.75912 | 16.18287 | 38044 ft | 399 kts | 236° |
| 2026-05-08 09:19 | 48.74270 | 16.14817 | 38106 ft | 400 kts | 236° |
| 2026-05-08 09:20 | 48.71023 | 16.07964 | 38110 ft | 400 kts | 236° |
| 2026-05-08 09:20 | 48.67767 | 16.01129 | 38110 ft | 400 kts | 236° |
| 2026-05-08 09:21 | 48.64510 | 15.94308 | 38111 ft | 399 kts | 236° |
| 2026-05-08 09:23 | 48.53091 | 15.70529 | 38120 ft | 400 kts | 236° |
| 2026-05-08 09:23 | 48.49821 | 15.63736 | 38121 ft | 400 kts | 236° |
| 2026-05-08 09:24 | 48.46549 | 15.56943 | 38123 ft | 401 kts | 236° |
| 2026-05-08 09:24 | 48.43246 | 15.50125 | 38125 ft | 400 kts | 235° |
| 2026-05-08 09:25 | 48.39951 | 15.43366 | 38124 ft | 401 kts | 235° |
| 2026-05-08 09:25 | 48.36655 | 15.36600 | 38128 ft | 401 kts | 235° |
| 2026-05-08 09:26 | 48.33360 | 15.29836 | 38128 ft | 401 kts | 235° |
| 2026-05-08 09:26 | 48.30047 | 15.23086 | 38126 ft | 401 kts | 235° |
| 2026-05-08 09:27 | 48.26738 | 15.16349 | 38128 ft | 401 kts | 235° |
| 2026-05-08 09:27 | 48.23427 | 15.09610 | 38126 ft | 401 kts | 235° |
| 2026-05-08 09:28 | 48.20107 | 15.02880 | 38129 ft | 402 kts | 235° |
| 2026-05-08 09:28 | 48.16777 | 14.96156 | 38130 ft | 402 kts | 235° |
| 2026-05-08 09:29 | 48.13446 | 14.89440 | 38150 ft | 402 kts | 235° |
| 2026-05-08 09:29 | 48.10104 | 14.82716 | 38147 ft | 402 kts | 235° |
| 2026-05-08 09:30 | 48.06762 | 14.76005 | 38147 ft | 402 kts | 235° |
| 2026-05-08 09:30 | 48.03423 | 14.69305 | 38140 ft | 402 kts | 234° |
| 2026-05-08 09:31 | 48.00054 | 14.62578 | 38146 ft | 401 kts | 234° |
| 2026-05-08 09:31 | 47.96709 | 14.55919 | 38141 ft | 401 kts | 234° |
| 2026-05-08 09:32 | 47.93360 | 14.49274 | 38145 ft | 400 kts | 234° |
| 2026-05-08 09:32 | 47.90025 | 14.42645 | 38148 ft | 399 kts | 235° |
| 2026-05-08 09:33 | 47.86743 | 14.35989 | 38133 ft | 398 kts | 235° |
| 2026-05-08 09:33 | 47.83469 | 14.29330 | 38132 ft | 398 kts | 235° |
| 2026-05-08 09:34 | 47.80189 | 14.22692 | 38131 ft | 398 kts | 235° |
| 2026-05-08 09:34 | 47.76899 | 14.16050 | 38129 ft | 399 kts | 235° |
| 2026-05-08 09:35 | 47.73604 | 14.09419 | 38129 ft | 399 kts | 235° |
| 2026-05-08 09:35 | 47.70298 | 14.02790 | 38134 ft | 400 kts | 235° |
| 2026-05-08 09:36 | 47.66958 | 13.96127 | 38146 ft | 400 kts | 234° |
| 2026-05-08 09:36 | 47.63643 | 13.89514 | 38133 ft | 399 kts | 234° |
| 2026-05-08 09:37 | 47.60332 | 13.82908 | 38132 ft | 399 kts | 234° |
| 2026-05-08 09:37 | 47.57014 | 13.76325 | 38132 ft | 398 kts | 234° |
| 2026-05-08 09:38 | 47.53697 | 13.69761 | 38130 ft | 398 kts | 234° |
| 2026-05-08 09:38 | 47.50386 | 13.63204 | 38125 ft | 398 kts | 234° |
| 2026-05-08 09:39 | 47.47077 | 13.56656 | 38125 ft | 398 kts | 234° |
| 2026-05-08 09:39 | 47.43751 | 13.50118 | 38126 ft | 398 kts | 234° |
| 2026-05-08 09:40 | 47.40415 | 13.43587 | 38125 ft | 398 kts | 234° |
| 2026-05-08 09:40 | 47.37085 | 13.37056 | 38128 ft | 398 kts | 234° |
| 2026-05-08 09:41 | 47.33748 | 13.30532 | 38131 ft | 398 kts | 234° |
| 2026-05-08 09:41 | 47.30405 | 13.24024 | 38133 ft | 398 kts | 234° |
| 2026-05-08 09:42 | 47.27054 | 13.17524 | 38132 ft | 398 kts | 234° |
| 2026-05-08 09:42 | 47.23690 | 13.10979 | 38152 ft | 398 kts | 234° |
| 2026-05-08 09:43 | 47.20340 | 13.04496 | 38148 ft | 398 kts | 233° |
| 2026-05-08 09:43 | 47.16980 | 12.98024 | 38141 ft | 398 kts | 233° |
| 2026-05-08 09:44 | 47.13622 | 12.91571 | 38131 ft | 397 kts | 233° |
| 2026-05-08 09:44 | 47.10259 | 12.85115 | 38130 ft | 398 kts | 233° |
| 2026-05-08 09:45 | 47.06907 | 12.78680 | 38132 ft | 397 kts | 233° |
| 2026-05-08 09:45 | 47.03546 | 12.72251 | 38133 ft | 397 kts | 233° |
| 2026-05-08 09:46 | 47.00185 | 12.65836 | 38134 ft | 397 kts | 233° |
| 2026-05-08 09:46 | 46.96820 | 12.59434 | 38132 ft | 396 kts | 233° |
| 2026-05-08 09:47 | 46.93453 | 12.53048 | 38134 ft | 396 kts | 233° |
| 2026-05-08 09:47 | 46.90082 | 12.46655 | 38146 ft | 396 kts | 233° |
| 2026-05-08 09:48 | 46.86707 | 12.40280 | 38152 ft | 396 kts | 233° |
| 2026-05-08 09:48 | 46.83876 | 12.34950 | 38140 ft | 396 kts | 233° |
| 2026-05-08 09:49 | 46.80494 | 12.28598 | 38150 ft | 396 kts | 233° |
| 2026-05-08 09:49 | 46.77185 | 12.22174 | 38155 ft | 396 kts | 234° |
| 2026-05-08 09:50 | 46.73969 | 12.15652 | 38158 ft | 396 kts | 235° |
| 2026-05-08 09:50 | 46.70751 | 12.09137 | 38160 ft | 396 kts | 234° |
| 2026-05-08 09:51 | 46.67506 | 12.02664 | 38155 ft | 395 kts | 234° |
| 2026-05-08 09:51 | 46.64244 | 11.96220 | 38164 ft | 395 kts | 234° |
| 2026-05-08 09:52 | 46.60962 | 11.89729 | 38153 ft | 395 kts | 234° |
| 2026-05-08 09:52 | 46.57700 | 11.83304 | 38153 ft | 395 kts | 234° |
| 2026-05-08 09:53 | 46.54433 | 11.76880 | 38158 ft | 395 kts | 234° |
| 2026-05-08 09:53 | 46.51169 | 11.70454 | 38151 ft | 395 kts | 234° |
| 2026-05-08 09:54 | 46.47902 | 11.64039 | 38140 ft | 395 kts | 234° |
| 2026-05-08 09:54 | 46.44624 | 11.57640 | 38134 ft | 395 kts | 234° |
| 2026-05-08 09:55 | 46.41349 | 11.51255 | 38132 ft | 395 kts | 234° |
| 2026-05-08 09:55 | 46.38072 | 11.44883 | 38128 ft | 394 kts | 234° |
| 2026-05-08 09:56 | 46.34795 | 11.38509 | 38125 ft | 394 kts | 234° |
| 2026-05-08 09:56 | 46.31522 | 11.32151 | 38122 ft | 394 kts | 234° |
| 2026-05-08 09:57 | 46.26590 | 11.22629 | 38122 ft | 395 kts | 233° |
| 2026-05-08 09:57 | 46.23298 | 11.16291 | 38128 ft | 394 kts | 233° |
| 2026-05-08 09:58 | 46.20005 | 11.09962 | 38139 ft | 394 kts | 233° |
| 2026-05-08 09:58 | 46.16706 | 11.03640 | 38151 ft | 394 kts | 233° |
| 2026-05-08 09:59 | 46.13382 | 10.97278 | 38150 ft | 394 kts | 233° |
| 2026-05-08 09:59 | 46.10080 | 10.90971 | 38155 ft | 394 kts | 233° |
| 2026-05-08 10:00 | 46.06801 | 10.84721 | 38152 ft | 394 kts | 233° |
| 2026-05-08 10:00 | 46.03471 | 10.78391 | 38143 ft | 394 kts | 233° |
| 2026-05-08 10:01 | 46.00163 | 10.72116 | 38140 ft | 393 kts | 233° |
| 2026-05-08 10:01 | 45.96854 | 10.65847 | 38152 ft | 393 kts | 233° |
| 2026-05-08 10:02 | 45.93542 | 10.59591 | 38139 ft | 393 kts | 233° |
| 2026-05-08 10:02 | 45.90231 | 10.53367 | 38133 ft | 392 kts | 233° |
| 2026-05-08 10:03 | 45.86922 | 10.47143 | 38136 ft | 393 kts | 233° |
| 2026-05-08 10:03 | 45.83605 | 10.40915 | 38125 ft | 393 kts | 233° |
| 2026-05-08 10:04 | 45.80281 | 10.34689 | 38118 ft | 392 kts | 233° |
| 2026-05-08 10:04 | 45.76959 | 10.28485 | 38114 ft | 393 kts | 233° |
| 2026-05-08 10:05 | 45.73635 | 10.22278 | 38113 ft | 393 kts | 232° |
| 2026-05-08 10:05 | 45.70301 | 10.16083 | 38112 ft | 392 kts | 233° |
| 2026-05-08 10:06 | 45.66966 | 10.09915 | 38109 ft | 392 kts | 232° |
| 2026-05-08 10:06 | 45.63611 | 10.03702 | 38107 ft | 392 kts | 233° |
| 2026-05-08 10:07 | 45.60271 | 9.97539 | 38107 ft | 392 kts | 232° |
| 2026-05-08 10:07 | 45.56934 | 9.91396 | 38106 ft | 391 kts | 232° |
| 2026-05-08 10:08 | 45.53596 | 9.85262 | 38100 ft | 392 kts | 232° |
| 2026-05-08 10:08 | 45.50249 | 9.79111 | 38099 ft | 393 kts | 232° |
| 2026-05-08 10:09 | 45.46901 | 9.72963 | 38097 ft | 393 kts | 232° |
| 2026-05-08 10:09 | 45.43541 | 9.66828 | 38102 ft | 392 kts | 232° |
| 2026-05-08 10:10 | 45.40180 | 9.60714 | 38098 ft | 393 kts | 232° |
| 2026-05-08 10:10 | 45.36820 | 9.54591 | 38097 ft | 392 kts | 232° |
| 2026-05-08 10:11 | 45.33459 | 9.48480 | 38096 ft | 393 kts | 232° |
| 2026-05-08 10:11 | 45.30085 | 9.42378 | 38095 ft | 393 kts | 232° |
| 2026-05-08 10:12 | 45.26711 | 9.36282 | 38092 ft | 393 kts | 232° |
| 2026-05-08 10:12 | 45.23330 | 9.30183 | 38090 ft | 393 kts | 232° |
| 2026-05-08 10:13 | 45.19945 | 9.24090 | 38087 ft | 393 kts | 232° |
| 2026-05-08 10:13 | 45.16558 | 9.18005 | 38089 ft | 393 kts | 232° |
| 2026-05-08 10:14 | 45.13164 | 9.11931 | 38093 ft | 393 kts | 231° |
| 2026-05-08 10:14 | 45.09572 | 9.06022 | 38088 ft | 394 kts | 229° |
| 2026-05-08 10:15 | 45.05881 | 9.00295 | 38088 ft | 394 kts | 229° |
| 2026-05-08 10:15 | 45.02199 | 8.94559 | 38081 ft | 394 kts | 229° |